Airfield :
LOGIN :

Register | Disclaimer

   EN    FR    IT 

 










Legend :    VFR   Marginal VFR   IFR   Intensive IFR   Very Intensive IFR
Visi :
Ceiling :
>= 8 km
>= 3000ft
5 to 8 km
1000 to 3000 ft
1500m to 5 km
500 to 1000 ft
800 to 1500m
200 to 500 ft
< 800m
< 200 ft
Symbols :   Thunderstorms  Fog  Heavy snow  Heavy precipitations  Wind > 20 kt
SIGMETs :     Misc.  Thunderstorms  Icing  Turbulence  Mountain Waves  Volcanic Ashes






- Airport Elevation : 22 ft
- IATA code : TUN


DTTA - Tunis Carthage

CURRENT METAR :
  • 221300Z 03007KT 360V090 CAVOK 32/07 Q1014

EXPIRED METARs :
  • 221230Z 01007KT 340V050 CAVOK 32/07 Q1014
  • 221200Z 02007KT 360V060 CAVOK 32/11 Q1014
  • 221130Z 01007KT 350V050 CAVOK 32/12 Q1015
  • 221100Z 36009KT CAVOK 31/12 Q1015
  • 221030Z 01007KT CAVOK 32/14 Q1015

TAF TAF DTTA
Valid from the 22 at 12:00 until the 23 at 12:00 UTC


221100Z 2212/2312 05010KT CAVOK
BECMG 2219/2221 VRB03KT
BECMG 2310/2312 05010KT



MET'MAP, your aeronautical weather chart ! - Copyright ORBIFLY December 2007 - Disclaimer

ORBIFLY MET'MAP TEAM :

Programming & Development : Alexandra Zaïnal
Original concept : Baudouin d'Aumeries
Technical & hardware support : Manuel Goepfert
Assistance : Marc-Olivier Méhu

Contact : metmap@orbifly.com




SOURCES & CREDITS :

   NOAA